createdAt,value
2022-08-07T00:00:26.061Z,28.07
2022-08-07T00:02:55.898Z,29.58
2022-08-07T00:05:24.104Z,29.33
2022-08-07T00:08:00.116Z,30.83
2022-08-07T00:10:31.355Z,29.72
2022-08-07T00:13:03.168Z,29.59
2022-08-07T00:15:46.685Z,29.63
2022-08-07T00:18:24.267Z,29.46
2022-08-07T00:20:53.827Z,29.12
2022-08-07T00:23:23.460Z,28.52
2022-08-07T00:25:59.236Z,28.49
2022-08-07T00:28:34.133Z,28.58
2022-08-07T00:31:05.792Z,28.81
2022-08-07T00:33:35.533Z,29.63
2022-08-07T00:36:04.426Z,29.06
2022-08-07T00:38:36.575Z,28.98
2022-08-07T00:41:05.581Z,29.56
2022-08-07T00:43:59.053Z,29.60
2022-08-07T00:46:26.153Z,29.11
2022-08-07T00:48:54.029Z,29.86
2022-08-07T00:51:22.376Z,29.98
2022-08-07T00:53:57.679Z,30.02
2022-08-07T00:56:30.205Z,30.32
2022-08-07T00:58:58.878Z,30.58
2022-08-07T01:01:27.021Z,30.33
2022-08-07T01:04:00.213Z,31.08
2022-08-07T01:06:30.182Z,31.33
2022-08-07T01:09:01.288Z,30.65
2022-08-07T01:12:27.411Z,30.62
2022-08-07T01:14:17.874Z,29.47
2022-08-07T01:16:50.438Z,29.71
2022-08-07T01:19:22.527Z,29.89
2022-08-07T01:21:56.158Z,31.80
2022-08-07T01:27:02.285Z,31.72
2022-08-07T01:29:34.262Z,31.16
2022-08-07T01:32:05.645Z,30.28
2022-08-07T01:34:47.249Z,30.30
2022-08-07T01:37:19.242Z,29.91
2022-08-07T01:39:49.792Z,30.11
2022-08-07T01:42:57.230Z,31.43
2022-08-07T01:45:37.303Z,31.12
2022-08-07T01:48:20.069Z,30.70
2022-08-07T01:50:58.215Z,31.60
2022-08-07T01:54:11.679Z,31.35
2022-08-07T01:56:25.174Z,31.87
2022-08-07T01:59:06.182Z,31.51
2022-08-07T02:01:59.970Z,30.82
2022-08-07T02:04:33.488Z,32.74
2022-08-07T02:07:05.068Z,32.13
2022-08-07T02:09:53.178Z,32.51
2022-08-07T02:12:31.039Z,32.94
2022-08-07T02:15:05.850Z,32.48
2022-08-07T02:17:41.800Z,31.51
2022-08-07T02:20:23.392Z,33.14
2022-08-07T02:22:59.685Z,32.56
2022-08-07T02:26:31.695Z,32.79
2022-08-07T02:28:25.298Z,33.24
2022-08-07T02:30:57.299Z,32.97
2022-08-07T02:33:32.726Z,32.59
2022-08-07T02:39:00.195Z,32.43
2022-08-07T02:41:36.952Z,31.72
2022-08-07T02:44:06.471Z,33.87
2022-08-07T02:46:36.851Z,33.29
2022-08-07T02:49:05.659Z,33.68
2022-08-07T02:51:42.449Z,33.24
2022-08-07T02:54:20.963Z,32.94
2022-08-07T02:56:55.797Z,34.76
2022-08-07T02:59:27.682Z,33.94
2022-08-07T03:02:01.943Z,34.12
2022-08-07T03:04:31.339Z,33.87
2022-08-07T03:07:07.130Z,33.87
2022-08-07T03:09:44.510Z,33.09
2022-08-07T03:12:22.579Z,33.18
2022-08-07T03:15:07.826Z,33.64
2022-08-07T03:17:52.955Z,32.55
2022-08-07T03:20:21.948Z,33.41
2022-08-07T03:22:53.494Z,33.81
2022-08-07T03:25:23.747Z,33.88
2022-08-07T03:28:37.183Z,33.71
2022-08-07T03:30:48.803Z,33.95
2022-08-07T03:33:17.962Z,33.80
2022-08-07T03:35:50.715Z,33.21
2022-08-07T03:38:29.370Z,33.43
2022-08-07T03:41:01.376Z,33.32
2022-08-07T03:43:32.856Z,32.47
2022-08-07T03:46:03.449Z,32.65
2022-08-07T03:48:33.272Z,32.83
2022-08-07T03:51:15.078Z,32.50
2022-08-07T03:54:33.198Z,32.69
2022-08-07T03:56:40.099Z,32.99
2022-08-07T03:59:30.170Z,32.25
2022-08-07T04:01:58.403Z,33.04
2022-08-07T04:04:27.558Z,33.83
2022-08-07T04:07:07.592Z,35.12
2022-08-07T04:09:50.164Z,34.82
2022-08-07T04:12:28.748Z,34.39
2022-08-07T04:15:00.626Z,36.32
2022-08-07T04:18:58.262Z,36.26
2022-08-07T04:20:21.550Z,36.42
2022-08-07T04:22:53.739Z,37.00
2022-08-07T04:25:35.941Z,36.68
2022-08-07T04:28:10.204Z,35.43
2022-08-07T04:30:51.259Z,34.86
2022-08-07T04:33:28.888Z,34.53
2022-08-07T04:35:59.226Z,34.85
2022-08-07T04:38:29.646Z,35.11
2022-08-07T04:40:59.258Z,35.03
2022-08-07T04:44:09.965Z,35.83
2022-08-07T04:46:42.782Z,36.50
2022-08-07T04:49:39.682Z,35.14
2022-08-07T04:52:19.733Z,34.85
2022-08-07T04:55:00.750Z,35.93
2022-08-07T04:58:32.072Z,34.70
2022-08-07T05:00:31.658Z,34.59
2022-08-07T05:03:16.712Z,36.39
2022-08-07T05:05:57.156Z,36.21
2022-08-07T05:09:00.147Z,35.20
2022-08-07T05:11:58.228Z,35.28
2022-08-07T05:14:55.215Z,37.21
2022-08-07T05:17:12.251Z,38.54
2022-08-07T05:20:04.345Z,38.23
2022-08-07T05:22:39.965Z,37.46
2022-08-07T05:25:25.348Z,36.49
2022-08-07T05:28:16.379Z,36.87
2022-08-07T05:30:48.251Z,36.35
2022-08-07T05:33:17.987Z,35.98
2022-08-07T05:35:55.047Z,36.71
2022-08-07T05:38:59.608Z,38.20
2022-08-07T05:41:16.833Z,38.26
2022-08-07T05:44:08.381Z,36.41
2022-08-07T05:46:39.217Z,36.73
2022-08-07T05:49:12.294Z,36.33
2022-08-07T05:51:42.605Z,38.29
2022-08-07T05:54:30.082Z,36.89
2022-08-07T05:56:59.626Z,36.37
2022-08-07T05:59:28.492Z,36.30
2022-08-07T06:02:08.943Z,37.81
2022-08-07T06:04:43.037Z,36.68
2022-08-07T06:07:22.706Z,37.54
2022-08-07T06:10:05.316Z,36.14
2022-08-07T06:12:35.519Z,38.35
2022-08-07T06:15:05.510Z,38.42
2022-08-07T06:17:38.202Z,37.88
2022-08-07T06:20:12.598Z,38.93
2022-08-07T06:23:04.085Z,37.95
2022-08-07T06:25:54.647Z,37.06
2022-08-07T06:28:28.004Z,37.45
2022-08-07T06:30:58.320Z,37.43
2022-08-07T06:33:27.471Z,37.60
2022-08-07T06:36:06.655Z,37.57
2022-08-07T06:38:59.162Z,37.94
2022-08-07T06:42:00.571Z,37.23
2022-08-07T06:44:51.627Z,37.29
2022-08-07T06:47:21.266Z,37.03
2022-08-07T06:49:58.525Z,37.20
2022-08-07T06:52:35.564Z,38.08
2022-08-07T06:55:33.576Z,36.31
2022-08-07T06:58:04.278Z,36.77
2022-08-07T07:00:39.856Z,35.35
2022-08-07T07:03:14.408Z,35.49
2022-08-07T07:06:03.450Z,36.70
2022-08-07T07:08:35.705Z,37.75
2022-08-07T07:11:13.477Z,36.65
2022-08-07T07:13:58.388Z,36.80
2022-08-07T07:16:44.997Z,36.30
2022-08-07T07:19:56.001Z,35.64
2022-08-07T07:22:11.689Z,34.49
2022-08-07T07:25:13.936Z,34.30
2022-08-07T07:27:56.411Z,35.13
2022-08-07T07:30:38.266Z,34.77
2022-08-07T07:33:11.706Z,35.85
2022-08-07T07:36:03.962Z,36.39
2022-08-07T07:38:34.775Z,35.74
2022-08-07T07:41:08.609Z,36.20
2022-08-07T07:44:13.735Z,34.50
2022-08-07T07:46:40.493Z,33.68
2022-08-07T07:50:34.816Z,36.64
2022-08-07T07:52:12.779Z,33.95
2022-08-07T07:54:50.474Z,32.43
2022-08-07T07:57:50.348Z,34.24
2022-08-07T08:00:20.778Z,32.51
2022-08-07T08:03:04.992Z,31.90
2022-08-07T08:05:54.310Z,33.19
2022-08-07T08:08:36.064Z,29.41
2022-08-07T08:11:08.098Z,29.78
2022-08-07T08:13:53.352Z,28.79
2022-08-07T08:16:29.881Z,29.03
2022-08-07T08:19:09.928Z,28.36
2022-08-07T08:22:07.734Z,27.57
2022-08-07T08:25:04.829Z,28.46
2022-08-07T08:27:57.386Z,31.06
2022-08-07T08:30:34.828Z,28.25
2022-08-07T08:33:15.070Z,27.79
2022-08-07T08:35:49.682Z,28.45
2022-08-07T08:38:21.837Z,25.62
2022-08-07T08:41:03.416Z,28.39
2022-08-07T08:43:42.688Z,30.69
2022-08-07T08:46:35.149Z,27.85
2022-08-07T08:49:17.705Z,28.02
2022-08-07T08:52:14.324Z,24.53
2022-08-07T08:54:48.741Z,25.93
2022-08-07T08:57:27.209Z,25.49
2022-08-07T09:00:03.130Z,23.43
2022-08-07T09:02:40.347Z,23.71
2022-08-07T09:05:36.623Z,22.45
2022-08-07T09:08:28.369Z,22.45
2022-08-07T09:11:06.474Z,20.70
2022-08-07T09:13:44.283Z,20.44
2022-08-07T09:16:23.336Z,20.04
2022-08-07T09:19:51.268Z,20.84
2022-08-07T09:24:29.183Z,21.49
2022-08-07T09:25:17.269Z,21.92
2022-08-07T09:27:59.753Z,21.34
2022-08-07T09:30:44.160Z,21.76
2022-08-07T09:33:53.163Z,21.94
2022-08-07T09:36:27.030Z,21.77
2022-08-07T09:39:27.291Z,20.39
2022-08-07T09:42:07.812Z,20.13
2022-08-07T09:47:55.030Z,20.28
2022-08-07T09:48:03.011Z,19.94
2022-08-07T09:50:45.301Z,21.08
2022-08-07T09:53:16.641Z,20.05
2022-08-07T09:56:04.973Z,20.32
2022-08-07T09:59:14.587Z,20.38
2022-08-07T10:01:59.470Z,19.73
2022-08-07T10:04:53.183Z,19.76
2022-08-07T10:07:52.656Z,18.93
2022-08-07T10:11:00.197Z,21.31
2022-08-07T10:14:00.281Z,21.18
2022-08-07T10:17:01.873Z,20.50
2022-08-07T10:19:55.065Z,20.21
2022-08-07T10:22:50.937Z,19.40
2022-08-07T10:25:42.050Z,19.26
2022-08-07T10:28:39.203Z,19.27
2022-08-07T10:31:23.087Z,18.21
2022-08-07T10:34:17.965Z,18.17
2022-08-07T10:37:04.100Z,17.32
2022-08-07T10:40:02.554Z,16.14
2022-08-07T10:42:39.442Z,16.31
2022-08-07T10:45:44.055Z,15.20
2022-08-07T10:48:22.398Z,15.20
2022-08-07T10:50:55.270Z,14.25
2022-08-07T10:53:41.904Z,16.98
2022-08-07T10:56:31.357Z,16.34
2022-08-07T10:59:10.644Z,14.74
2022-08-07T11:02:02.605Z,12.40
2022-08-07T11:04:53.317Z,12.55
2022-08-07T11:08:00.466Z,13.10
2022-08-07T11:10:27.553Z,11.99
2022-08-07T11:13:02.221Z,13.85
2022-08-07T11:15:36.100Z,15.37
2022-08-07T11:18:13.296Z,14.18
2022-08-07T11:20:49.444Z,14.10
2022-08-07T11:23:30.258Z,14.19
2022-08-07T11:26:13.130Z,12.41
2022-08-07T11:28:53.396Z,11.18
2022-08-07T11:31:33.407Z,12.57
2022-08-07T11:34:17.025Z,11.75
2022-08-07T11:37:00.444Z,11.86
2022-08-07T11:39:59.843Z,11.50
2022-08-07T11:42:40.076Z,12.20
2022-08-07T11:45:20.340Z,11.49
2022-08-07T11:48:26.806Z,11.97
2022-08-07T11:51:41.373Z,9.25
2022-08-07T11:54:25.507Z,12.20
2022-08-07T11:57:06.724Z,11.35
2022-08-07T12:00:12.653Z,10.29
2022-08-07T12:03:01.160Z,11.15
2022-08-07T12:05:49.013Z,10.80
2022-08-07T12:08:25.924Z,12.56
2022-08-07T12:11:21.128Z,10.01
2022-08-07T12:13:54.783Z,10.49
2022-08-07T12:16:30.531Z,11.03
2022-08-07T12:19:07.575Z,10.20
2022-08-07T12:22:35.877Z,10.27
2022-08-07T12:24:40.184Z,10.68
2022-08-07T12:27:16.236Z,11.33
2022-08-07T12:29:52.747Z,11.22
2022-08-07T12:32:28.856Z,11.22
2022-08-07T12:35:03.234Z,9.91
2022-08-07T12:38:08.942Z,10.54
2022-08-07T12:40:47.297Z,9.78
2022-08-07T12:44:03.357Z,11.47
2022-08-07T12:46:26.411Z,12.51
2022-08-07T12:49:25.653Z,11.96
2022-08-07T12:52:13.850Z,10.53
2022-08-07T12:54:54.658Z,11.83
2022-08-07T12:57:38.773Z,11.26
2022-08-07T13:00:31.115Z,12.78
2022-08-07T13:03:23.019Z,10.18
2022-08-07T13:06:27.008Z,11.57
2022-08-07T13:09:02.642Z,13.38
2022-08-07T13:12:02.035Z,11.98
2022-08-07T13:14:52.646Z,12.91
2022-08-07T13:17:40.666Z,13.24
2022-08-07T13:20:21.767Z,12.87
2022-08-07T13:23:03.868Z,12.61
2022-08-07T13:25:41.734Z,12.92
2022-08-07T13:28:18.355Z,13.95
2022-08-07T13:31:06.538Z,12.95
2022-08-07T13:34:33.843Z,12.60
2022-08-07T13:36:44.317Z,12.94
2022-08-07T13:39:49.240Z,12.25
2022-08-07T13:42:10.151Z,12.85
2022-08-07T13:44:39.504Z,13.25
2022-08-07T13:47:15.017Z,13.54
2022-08-07T13:50:35.355Z,14.11
2022-08-07T13:52:40.960Z,14.09
2022-08-07T13:55:25.494Z,13.87
2022-08-07T13:58:28.116Z,12.40
2022-08-07T14:01:09.052Z,13.49
2022-08-07T14:04:07.867Z,12.55
2022-08-07T14:06:34.376Z,13.35
2022-08-07T14:09:04.959Z,13.26
2022-08-07T14:11:53.640Z,12.58
2022-08-07T14:14:30.683Z,12.69
2022-08-07T14:17:32.442Z,13.44
2022-08-07T14:22:40.944Z,13.43
2022-08-07T14:22:49.789Z,12.44
2022-08-07T14:25:18.765Z,12.48
2022-08-07T14:30:40.701Z,13.01
2022-08-07T14:33:10.030Z,13.31
2022-08-07T14:38:33.387Z,11.95
2022-08-07T14:41:04.147Z,12.55
2022-08-07T14:43:57.948Z,13.23
2022-08-07T14:46:31.254Z,13.48
2022-08-07T14:49:17.585Z,12.23
2022-08-07T14:52:04.500Z,12.18
2022-08-07T14:54:43.061Z,12.64
2022-08-07T14:57:18.683Z,13.42
2022-08-07T15:02:56.931Z,13.47
2022-08-07T15:05:26.674Z,13.13
2022-08-07T15:07:58.511Z,12.65
2022-08-07T15:10:29.903Z,13.42
2022-08-07T15:13:11.463Z,13.42
2022-08-07T15:15:43.750Z,13.32
2022-08-07T15:18:33.659Z,12.68
2022-08-07T15:21:07.919Z,12.53
2022-08-07T15:25:15.716Z,13.10
2022-08-07T15:26:37.442Z,12.01
2022-08-07T15:30:04.651Z,12.95
2022-08-07T15:32:05.103Z,13.21
2022-08-07T15:34:37.453Z,12.54
2022-08-07T15:37:27.685Z,13.01
2022-08-07T15:40:00.392Z,13.02
2022-08-07T15:42:51.850Z,12.20
2022-08-07T15:48:25.652Z,13.01
2022-08-07T15:51:08.945Z,12.83
2022-08-07T15:53:42.245Z,13.19
2022-08-07T15:56:25.412Z,13.64
2022-08-07T15:58:57.824Z,13.70
2022-08-07T16:01:39.068Z,13.81
2022-08-07T16:04:15.154Z,13.72
2022-08-07T16:06:50.601Z,12.38
2022-08-07T16:09:41.100Z,13.06
2022-08-07T16:12:31.795Z,12.90
2022-08-07T16:15:57.353Z,13.04
2022-08-07T16:18:14.644Z,13.54
2022-08-07T16:21:56.785Z,12.80
2022-08-07T16:24:01.774Z,12.94
2022-08-07T16:26:59.622Z,13.25
2022-08-07T16:30:10.830Z,13.69
2022-08-07T16:32:46.611Z,13.18
2022-08-07T16:35:51.719Z,13.65
2022-08-07T16:39:00.605Z,13.86
2022-08-07T16:41:48.760Z,13.49
2022-08-07T16:45:19.109Z,13.43
2022-08-07T16:47:57.115Z,14.09
2022-08-07T16:50:41.903Z,13.30
2022-08-07T16:54:06.172Z,13.59
2022-08-07T16:56:53.523Z,13.40
2022-08-07T16:59:46.335Z,14.48
2022-08-07T17:03:04.837Z,13.62
2022-08-07T17:06:19.818Z,14.17
2022-08-07T17:09:10.561Z,14.35
2022-08-07T17:12:05.361Z,13.85
2022-08-07T17:14:33.175Z,13.42
2022-08-07T17:17:06.030Z,13.40
2022-08-07T17:20:02.396Z,13.50
2022-08-07T17:22:37.676Z,12.92
2022-08-07T17:25:13.564Z,14.47
2022-08-07T17:27:53.716Z,16.19
2022-08-07T17:30:27.827Z,14.52
2022-08-07T17:34:10.162Z,16.43
2022-08-07T17:36:03.818Z,18.65
2022-08-07T17:38:37.344Z,16.38
2022-08-07T17:41:12.283Z,18.49
2022-08-07T17:44:05.752Z,17.85
2022-08-07T17:46:43.021Z,17.17
2022-08-07T17:49:23.038Z,21.14
2022-08-07T17:52:00.278Z,17.66
2022-08-07T17:54:53.069Z,19.71
2022-08-07T17:57:56.485Z,17.19
2022-08-07T18:00:32.734Z,20.65
2022-08-07T18:03:09.367Z,17.77
2022-08-07T18:06:03.549Z,17.68
2022-08-07T18:09:01.153Z,18.30
2022-08-07T18:12:16.351Z,17.77
2022-08-07T18:14:37.422Z,17.93
2022-08-07T18:18:45.766Z,17.67
2022-08-07T18:21:11.506Z,18.95
2022-08-07T18:23:07.091Z,18.24
2022-08-07T18:26:01.315Z,17.59
2022-08-07T18:28:58.609Z,17.27
2022-08-07T18:31:50.167Z,19.61
2022-08-07T18:34:39.293Z,19.81
2022-08-07T18:38:57.998Z,19.99
2022-08-07T18:40:43.957Z,20.28
2022-08-07T18:43:37.014Z,19.62
2022-08-07T18:46:27.214Z,20.33
2022-08-07T18:50:05.245Z,20.51
2022-08-07T18:52:37.660Z,20.09
2022-08-07T18:54:57.091Z,19.45
2022-08-07T18:57:38.857Z,19.35
2022-08-07T19:00:32.643Z,20.17
2022-08-07T19:03:03.848Z,20.25
2022-08-07T19:06:03.355Z,19.89
2022-08-07T19:08:46.337Z,21.48
2022-08-07T19:11:36.533Z,21.38
2022-08-07T19:14:17.356Z,21.12
2022-08-07T19:17:06.129Z,22.27
2022-08-07T19:19:46.189Z,21.27
2022-08-07T19:22:30.765Z,22.06
2022-08-07T19:25:06.370Z,21.32
2022-08-07T19:28:56.835Z,20.29
2022-08-07T19:31:00.065Z,21.31
2022-08-07T19:33:33.555Z,21.73
2022-08-07T19:36:08.850Z,21.88
2022-08-07T19:38:52.912Z,21.92
2022-08-07T19:41:44.047Z,23.07
2022-08-07T19:44:21.794Z,23.19
2022-08-07T19:46:57.689Z,22.80
2022-08-07T19:49:57.209Z,22.91
2022-08-07T19:52:18.758Z,23.89
2022-08-07T19:54:56.448Z,23.58
2022-08-07T19:58:03.414Z,24.36
2022-08-07T20:00:28.553Z,24.07
2022-08-07T20:03:02.776Z,24.05
2022-08-07T20:06:01.278Z,24.96
2022-08-07T20:08:24.717Z,25.10
2022-08-07T20:11:02.202Z,23.99
2022-08-07T20:13:43.229Z,23.34
2022-08-07T20:16:15.785Z,24.19
2022-08-07T20:19:06.063Z,24.84
2022-08-07T20:21:46.966Z,25.30
2022-08-07T20:24:20.422Z,24.96
2022-08-07T20:26:52.201Z,25.96
2022-08-07T20:29:49.323Z,25.07
2022-08-07T20:32:23.102Z,25.17
2022-08-07T20:34:57.130Z,25.09
2022-08-07T20:37:37.011Z,25.45
2022-08-07T20:40:31.170Z,24.65
2022-08-07T20:43:14.457Z,25.43
2022-08-07T20:46:26.516Z,26.01
2022-08-07T20:49:55.146Z,26.15
2022-08-07T20:51:36.130Z,25.72
2022-08-07T20:54:12.373Z,26.04
2022-08-07T20:56:51.548Z,25.44
2022-08-07T21:00:04.539Z,26.58
2022-08-07T21:02:38.402Z,25.86
2022-08-07T21:05:16.573Z,25.67
2022-08-07T21:07:48.781Z,25.49
2022-08-07T21:10:25.260Z,25.76
2022-08-07T21:13:03.985Z,25.30
2022-08-07T21:15:47.834Z,25.94
2022-08-07T21:18:29.437Z,24.57
2022-08-07T21:21:01.616Z,25.57
2022-08-07T21:23:49.358Z,23.93
2022-08-07T21:26:32.264Z,23.98
2022-08-07T21:29:15.983Z,24.92
2022-08-07T21:32:44.209Z,25.49
2022-08-07T21:34:48.499Z,24.69
2022-08-07T21:37:21.767Z,24.71
2022-08-07T21:39:56.800Z,25.09
2022-08-07T21:42:42.275Z,26.10
2022-08-07T21:46:08.492Z,26.52
2022-08-07T21:48:28.231Z,25.36
2022-08-07T21:51:03.246Z,25.90
2022-08-07T21:53:37.197Z,25.34
2022-08-07T21:56:36.062Z,24.58
2022-08-07T21:59:09.204Z,24.33
2022-08-07T22:02:07.380Z,25.30
2022-08-07T22:04:53.783Z,24.73
2022-08-07T22:07:31.524Z,25.76
2022-08-07T22:10:18.079Z,25.45
2022-08-07T22:12:51.981Z,25.19
2022-08-07T22:16:39.515Z,25.01
2022-08-07T22:18:24.756Z,25.75
2022-08-07T22:20:59.768Z,26.63
2022-08-07T22:23:40.381Z,25.87
2022-08-07T22:26:19.413Z,27.49
2022-08-07T22:28:52.944Z,26.13
2022-08-07T22:31:45.301Z,28.26
2022-08-07T22:34:28.874Z,28.99
2022-08-07T22:37:09.434Z,28.60
2022-08-07T22:39:52.550Z,30.40
2022-08-07T22:42:25.562Z,31.85
2022-08-07T22:44:59.714Z,31.97
2022-08-07T22:47:58.015Z,32.22
2022-08-07T22:50:53.202Z,31.72
2022-08-07T22:54:07.709Z,31.82
2022-08-07T22:56:34.797Z,30.19
2022-08-07T22:59:41.354Z,30.88
2022-08-07T23:02:27.339Z,33.16
2022-08-07T23:06:07.200Z,31.07
2022-08-07T23:08:30.834Z,32.02
2022-08-07T23:11:18.047Z,34.18
2022-08-07T23:14:10.843Z,36.48
2022-08-07T23:16:59.049Z,35.91
2022-08-07T23:19:57.912Z,36.21
2022-08-07T23:22:41.389Z,35.74
2022-08-07T23:25:35.582Z,33.49
2022-08-07T23:28:28.592Z,32.09
2022-08-07T23:31:13.813Z,33.88
2022-08-07T23:34:22.687Z,32.36
2022-08-07T23:37:20.138Z,33.22
2022-08-07T23:40:01.811Z,33.74
2022-08-07T23:42:53.174Z,38.37
2022-08-07T23:45:33.035Z,36.78
2022-08-07T23:48:36.940Z,35.10
2022-08-07T23:52:57.839Z,35.17
2022-08-07T23:54:08.339Z,36.27
2022-08-07T23:57:01.919Z,38.18
